Time;durP1;ratioP1;P1;durP2;ratioP2;P2;SDS_P1;SDS_P2;PMS_P1;PMS_P2;Temp;Humidity;BMP_temperature;BMP_pressure;BME280_temperature;BME280_humidity;BME280_pressure;Samples;Min_cycle;Max_cycle;Signal;HPM_P1;HPM_P2
2021/07/23 00:00:30;;;;;;;;;;;16.30;99.90;;;;;;5090055;28;19923;-72
2021/07/23 00:02:56;;;;;;;;;;;16.20;99.90;;;;;;5090472;28;19971;-73
2021/07/23 00:05:21;;;;;;;;;;;16.20;99.90;;;;;;5090930;28;19912;-74
2021/07/23 00:07:46;;;;;;;;;;;16.00;99.90;;;;;;5090169;28;19909;-72
2021/07/23 00:10:12;;;;;;;;;;;16.00;99.90;;;;;;5092536;28;19908;-72
2021/07/23 00:12:37;;;;;;;;;;;15.90;99.90;;;;;;5091616;28;19923;-72
2021/07/23 00:15:03;;;;;;;;;;;15.90;99.90;;;;;;5092441;28;19998;-72
2021/07/23 00:17:28;;;;;;;;;;;15.90;99.90;;;;;;5091348;28;19908;-72
2021/07/23 00:19:54;;;;;;;;;;;15.90;99.90;;;;;;5092211;28;20428;-72
2021/07/23 00:22:19;;;;;;;;;;;15.90;99.90;;;;;;5091638;28;19915;-74
2021/07/23 00:24:45;;;;;;;;;;;15.90;99.90;;;;;;5091913;28;19908;-72
2021/07/23 00:27:10;;;;;;;;;;;15.80;99.90;;;;;;5089763;28;19908;-72
2021/07/23 00:29:36;;;;;;;;;;;15.90;99.90;;;;;;5091642;28;19908;-72
2021/07/23 00:32:01;;;;;;;;;;;15.90;99.90;;;;;;5102584;28;20279;-75
2021/07/23 00:34:27;;;;;;;;;;;15.80;99.90;;;;;;5111732;28;19908;-72
2021/07/23 00:36:52;;;;;;;;;;;15.90;99.90;;;;;;5111697;28;19908;-73
2021/07/23 00:39:18;;;;;;;;;;;15.80;99.90;;;;;;5111651;28;20261;-75
2021/07/23 00:41:43;;;;;;;;;;;15.80;99.90;;;;;;5111968;28;19908;-72
2021/07/23 00:44:09;;;;;;;;;;;15.70;99.90;;;;;;5110688;28;19915;-72
2021/07/23 00:46:35;;;;;;;;;;;15.70;99.90;;;;;;5111460;28;19931;-72
2021/07/23 00:49:01;;;;;;;;;;;15.70;99.90;;;;;;5111566;28;19912;-72
2021/07/23 00:51:26;;;;;;;;;;;15.70;99.90;;;;;;5111928;28;19926;-72
2021/07/23 00:53:53;;;;;;;;;;;15.70;99.90;;;;;;5111478;28;20454;-75
2021/07/23 00:56:18;;;;;;;;;;;15.80;99.90;;;;;;5111340;28;19915;-73
2021/07/23 00:58:44;;;;;;;;;;;15.70;99.90;;;;;;5111462;28;19908;-72
2021/07/23 01:01:09;;;;;;;;;;;15.80;99.90;;;;;;5097399;28;19912;-72
2021/07/23 01:03:35;;;;;;;;;;;15.70;99.90;;;;;;5091296;28;19930;-72
2021/07/23 01:06:01;;;;;;;;;;;15.60;99.90;;;;;;5090819;28;20017;-78
2021/07/23 01:08:27;;;;;;;;;;;15.60;99.90;;;;;;5091300;28;19915;-74
2021/07/23 01:10:52;;;;;;;;;;;15.70;99.90;;;;;;5093853;28;19961;-72
2021/07/23 01:13:18;;;;;;;;;;;15.70;99.90;;;;;;5094458;28;19912;-72
2021/07/23 01:15:43;;;;;;;;;;;15.60;99.90;;;;;;5095175;28;19952;-72
2021/07/23 01:18:09;;;;;;;;;;;15.60;99.90;;;;;;5095136;28;19955;-75
2021/07/23 01:20:35;;;;;;;;;;;15.60;99.90;;;;;;5093779;28;20364;-75
2021/07/23 01:23:01;;;;;;;;;;;15.60;99.90;;;;;;5095301;28;19908;-75
2021/07/23 01:25:28;;;;;;;;;;;15.60;99.90;;;;;;5094891;28;19957;-73
2021/07/23 01:27:54;;;;;;;;;;;15.60;99.90;;;;;;5094865;28;19971;-72
2021/07/23 01:30:20;;;;;;;;;;;15.60;99.90;;;;;;5094091;28;20008;-72
2021/07/23 01:32:46;;;;;;;;;;;15.60;99.90;;;;;;5094913;28;19919;-72
2021/07/23 01:35:12;;;;;;;;;;;15.50;99.90;;;;;;5095038;28;19908;-72
2021/07/23 01:37:38;;;;;;;;;;;15.40;99.90;;;;;;5094713;28;20340;-73
2021/07/23 01:40:04;;;;;;;;;;;15.40;99.90;;;;;;5095009;28;19931;-72
2021/07/23 01:42:31;;;;;;;;;;;15.40;99.90;;;;;;5094672;28;19912;-72
2021/07/23 01:44:56;;;;;;;;;;;15.30;99.90;;;;;;5093625;28;19923;-72
2021/07/23 01:47:22;;;;;;;;;;;15.30;99.90;;;;;;5094003;28;19908;-72
2021/07/23 01:49:48;;;;;;;;;;;15.30;99.90;;;;;;5094861;28;20345;-75
2021/07/23 01:52:13;;;;;;;;;;;15.30;99.90;;;;;;5094171;28;20344;-72
2021/07/23 01:54:38;;;;;;;;;;;15.20;99.90;;;;;;5094555;28;19915;-73
2021/07/23 01:57:04;;;;;;;;;;;15.20;99.90;;;;;;5093756;28;19948;-73
2021/07/23 01:59:30;;;;;;;;;;;15.20;99.90;;;;;;5093139;28;19916;-73
2021/07/23 02:01:59;;;;;;;;;;;15.30;99.90;;;;;;5091771;28;19908;-74
2021/07/23 02:04:25;;;;;;;;;;;15.30;99.90;;;;;;5094457;28;19908;-72
2021/07/23 02:06:50;;;;;;;;;;;15.30;99.90;;;;;;5094301;28;20329;-73
2021/07/23 02:09:16;;;;;;;;;;;15.30;99.90;;;;;;5094195;28;19908;-74
2021/07/23 02:11:41;;;;;;;;;;;15.30;99.90;;;;;;5094359;28;20395;-72
2021/07/23 02:14:07;;;;;;;;;;;15.30;99.90;;;;;;5094008;28;19908;-72
2021/07/23 02:16:36;;;;;;;;;;;15.30;99.90;;;;;;5092446;28;20326;-73
2021/07/23 02:19:02;;;;;;;;;;;15.30;99.90;;;;;;5093725;28;20003;-72
2021/07/23 02:21:28;;;;;;;;;;;15.30;99.90;;;;;;5093055;28;19953;-72
2021/07/23 02:23:53;;;;;;;;;;;15.30;99.90;;;;;;5092508;28;20346;-72
2021/07/23 02:26:19;;;;;;;;;;;15.30;99.90;;;;;;5093839;28;20011;-73
2021/07/23 02:28:45;;;;;;;;;;;15.30;99.90;;;;;;5093661;28;19908;-72
2021/07/23 02:31:11;;;;;;;;;;;15.20;99.90;;;;;;5099967;28;19912;-73
2021/07/23 02:33:36;;;;;;;;;;;15.20;99.90;;;;;;5093244;28;19915;-76
2021/07/23 02:36:02;;;;;;;;;;;15.20;99.90;;;;;;5093317;28;19912;-72
2021/07/23 02:38:28;;;;;;;;;;;15.10;99.90;;;;;;5093309;28;19967;-72
2021/07/23 02:40:55;;;;;;;;;;;15.10;99.90;;;;;;5093796;28;19908;-73
2021/07/23 02:43:20;;;;;;;;;;;15.10;99.90;;;;;;5093789;28;20283;-72
2021/07/23 02:45:46;;;;;;;;;;;15.00;99.90;;;;;;5093181;28;19995;-72
2021/07/23 02:48:11;;;;;;;;;;;15.00;99.90;;;;;;5093136;28;19912;-72
2021/07/23 02:50:37;;;;;;;;;;;14.90;99.90;;;;;;5093205;28;20375;-75
2021/07/23 02:53:03;;;;;;;;;;;14.90;99.90;;;;;;5093480;28;20197;-72
2021/07/23 02:55:28;;;;;;;;;;;14.80;99.90;;;;;;5093191;28;19908;-72
2021/07/23 02:57:54;;;;;;;;;;;14.80;99.90;;;;;;5093063;28;19953;-72
2021/07/23 03:00:19;;;;;;;;;;;14.80;99.90;;;;;;5092046;28;19908;-74
2021/07/23 03:02:45;;;;;;;;;;;14.80;99.90;;;;;;5093093;28;20327;-72
2021/07/23 03:05:11;;;;;;;;;;;14.80;99.90;;;;;;5091527;28;19908;-72
2021/07/23 03:07:36;;;;;;;;;;;14.70;99.90;;;;;;5091430;28;20024;-72
2021/07/23 03:10:02;;;;;;;;;;;14.70;99.90;;;;;;5092945;28;20058;-77
2021/07/23 03:12:27;;;;;;;;;;;14.60;99.90;;;;;;5093039;28;20361;-75
2021/07/23 03:14:53;;;;;;;;;;;14.60;99.90;;;;;;5093070;28;20033;-72
2021/07/23 03:17:18;;;;;;;;;;;14.60;99.90;;;;;;5092143;28;19915;-72
2021/07/23 03:19:44;;;;;;;;;;;14.60;99.90;;;;;;5092776;28;19908;-72
2021/07/23 03:22:09;;;;;;;;;;;14.50;99.90;;;;;;5092581;28;19919;-75
2021/07/23 03:24:35;;;;;;;;;;;14.50;99.90;;;;;;5092940;28;19995;-72
2021/07/23 03:27:01;;;;;;;;;;;14.50;99.90;;;;;;5092241;28;20015;-72
2021/07/23 03:29:26;;;;;;;;;;;14.50;99.90;;;;;;5092787;28;19908;-73
2021/07/23 03:31:52;;;;;;;;;;;14.40;99.90;;;;;;5091157;28;20396;-75
2021/07/23 03:34:17;;;;;;;;;;;14.40;99.90;;;;;;5092566;28;19908;-72
2021/07/23 03:36:43;;;;;;;;;;;14.40;99.90;;;;;;5091721;28;20021;-72
2021/07/23 03:39:08;;;;;;;;;;;14.40;99.90;;;;;;5092622;28;19908;-76
2021/07/23 03:41:33;;;;;;;;;;;14.30;99.90;;;;;;5092128;28;19908;-72
2021/07/23 03:43:59;;;;;;;;;;;14.30;99.90;;;;;;5092509;28;19908;-72
2021/07/23 03:46:24;;;;;;;;;;;14.30;99.90;;;;;;5091867;28;19916;-73
2021/07/23 03:48:53;;;;;;;;;;;14.30;99.90;;;;;;5090745;28;19908;-72
2021/07/23 03:51:18;;;;;;;;;;;14.20;99.90;;;;;;5090938;28;19919;-76
2021/07/23 03:53:44;;;;;;;;;;;14.20;99.90;;;;;;5092024;28;19908;-72
2021/07/23 03:56:10;;;;;;;;;;;14.20;99.90;;;;;;5091895;28;19908;-72
2021/07/23 03:58:36;;;;;;;;;;;14.20;99.90;;;;;;5091735;28;20285;-72
2021/07/23 04:01:05;;;;;;;;;;;14.10;99.90;;;;;;5091073;28;19947;-72
2021/07/23 04:03:31;;;;;;;;;;;14.10;99.90;;;;;;5091559;28;19908;-75
2021/07/23 04:05:56;;;;;;;;;;;14.10;99.90;;;;;;5091928;28;19912;-77
2021/07/23 04:08:22;;;;;;;;;;;14.00;99.90;;;;;;5091416;28;19915;-72
2021/07/23 04:10:47;;;;;;;;;;;14.00;99.90;;;;;;5091977;28;19912;-72
2021/07/23 04:13:13;;;;;;;;;;;14.00;99.90;;;;;;5091041;28;20280;-76
2021/07/23 04:15:38;;;;;;;;;;;13.90;99.90;;;;;;5091906;28;19915;-72
2021/07/23 04:18:04;;;;;;;;;;;13.90;99.90;;;;;;5091469;28;20338;-72
2021/07/23 04:20:30;;;;;;;;;;;13.80;99.90;;;;;;5091894;28;19970;-73
2021/07/23 04:22:56;;;;;;;;;;;13.80;99.90;;;;;;5091813;28;20284;-72
2021/07/23 04:25:21;;;;;;;;;;;13.80;99.90;;;;;;5091628;28;19918;-75
2021/07/23 04:27:47;;;;;;;;;;;13.80;99.90;;;;;;5091373;28;19934;-72
2021/07/23 04:30:13;;;;;;;;;;;13.70;99.90;;;;;;5095079;28;20429;-72
2021/07/23 04:32:39;;;;;;;;;;;13.70;99.90;;;;;;5111698;28;19911;-72
2021/07/23 04:35:05;;;;;;;;;;;13.80;99.90;;;;;;5111904;28;20056;-72
2021/07/23 04:37:30;;;;;;;;;;;13.70;99.90;;;;;;5111496;28;20065;-72
2021/07/23 04:39:56;;;;;;;;;;;13.70;99.90;;;;;;5111680;28;19907;-76
2021/07/23 04:42:21;;;;;;;;;;;13.70;99.90;;;;;;5111808;28;19912;-72
2021/07/23 04:44:46;;;;;;;;;;;13.70;99.90;;;;;;5110829;28;20310;-72
2021/07/23 04:47:12;;;;;;;;;;;13.80;99.90;;;;;;5111263;28;19908;-75
2021/07/23 04:49:37;;;;;;;;;;;13.80;99.90;;;;;;5111421;28;19911;-72
2021/07/23 04:52:03;;;;;;;;;;;13.80;99.90;;;;;;5111784;28;19993;-72
2021/07/23 04:54:29;;;;;;;;;;;13.90;99.90;;;;;;5111611;28;20368;-72
2021/07/23 04:56:54;;;;;;;;;;;13.90;99.90;;;;;;5111252;28;19908;-74
2021/07/23 04:59:20;;;;;;;;;;;14.00;99.90;;;;;;5111517;28;20032;-72
2021/07/23 05:01:45;;;;;;;;;;;14.10;99.90;;;;;;5091768;28;20591;-72
2021/07/23 05:04:11;;;;;;;;;;;14.20;99.90;;;;;;5091121;28;19948;-72
2021/07/23 05:06:40;;;;;;;;;;;14.30;99.90;;;;;;5089450;28;19916;-72
2021/07/23 05:09:06;;;;;;;;;;;14.40;99.90;;;;;;5091293;28;19908;-72
2021/07/23 05:11:32;;;;;;;;;;;14.50;99.90;;;;;;5090883;28;19916;-72
2021/07/23 05:13:59;;;;;;;;;;;14.60;99.90;;;;;;5091063;28;19931;-72
2021/07/23 05:16:24;;;;;;;;;;;14.70;99.90;;;;;;5090541;28;19976;-77
2021/07/23 05:18:50;;;;;;;;;;;14.80;99.90;;;;;;5091097;28;20412;-72
2021/07/23 05:21:16;;;;;;;;;;;14.90;99.90;;;;;;5090898;28;20257;-72
2021/07/23 05:23:42;;;;;;;;;;;15.00;99.90;;;;;;5091017;28;19955;-72
2021/07/23 05:26:08;;;;;;;;;;;15.20;99.90;;;;;;5090493;28;19916;-72
2021/07/23 05:28:34;;;;;;;;;;;15.30;99.90;;;;;;5091401;28;19915;-72
2021/07/23 05:31:00;;;;;;;;;;;15.60;99.90;;;;;;5089813;28;19916;-72
2021/07/23 05:33:25;;;;;;;;;;;15.80;99.90;;;;;;5090919;28;19912;-73
2021/07/23 05:35:51;;;;;;;;;;;16.10;99.90;;;;;;5090898;28;19912;-76
2021/07/23 05:38:16;;;;;;;;;;;16.30;99.90;;;;;;5090558;28;19923;-72
2021/07/23 05:40:42;;;;;;;;;;;16.50;99.90;;;;;;5090954;28;19908;-72
2021/07/23 05:43:08;;;;;;;;;;;16.80;99.90;;;;;;5090720;28;19919;-74
2021/07/23 05:45:36;;;;;;;;;;;17.10;99.90;;;;;;5090792;28;19926;-75
2021/07/23 05:48:01;;;;;;;;;;;17.30;99.90;;;;;;5090138;28;19961;-73
2021/07/23 05:50:27;;;;;;;;;;;17.50;99.90;;;;;;5091040;28;19912;-72
2021/07/23 05:52:52;;;;;;;;;;;17.90;99.90;;;;;;5090752;28;20011;-72
2021/07/23 05:55:18;;;;;;;;;;;18.20;99.90;;;;;;5091087;28;19915;-73
2021/07/23 05:57:43;;;;;;;;;;;18.40;99.90;;;;;;5092706;28;20337;-75
2021/07/23 06:00:09;;;;;;;;;;;18.50;99.90;;;;;;5093431;28;19908;-72
2021/07/23 06:02:35;;;;;;;;;;;18.60;99.90;;;;;;5094400;28;19912;-72
2021/07/23 06:05:01;;;;;;;;;;;18.60;99.90;;;;;;5093478;28;19908;-72
2021/07/23 06:07:26;;;;;;;;;;;18.60;99.90;;;;;;5094004;28;19908;-72
2021/07/23 06:09:52;;;;;;;;;;;18.80;99.90;;;;;;5094488;28;19909;-77
2021/07/23 06:12:17;;;;;;;;;;;18.90;99.90;;;;;;5094083;28;19912;-72
2021/07/23 06:14:43;;;;;;;;;;;18.80;99.90;;;;;;5092970;28;19908;-72
2021/07/23 06:17:08;;;;;;;;;;;18.70;99.90;;;;;;5093865;28;19908;-75
2021/07/23 06:19:36;;;;;;;;;;;18.60;99.90;;;;;;5094077;28;19953;-72
2021/07/23 06:22:01;;;;;;;;;;;18.50;99.90;;;;;;5094232;28;20355;-72
2021/07/23 06:24:27;;;;;;;;;;;18.60;99.90;;;;;;5093935;28;20021;-72
2021/07/23 06:26:52;;;;;;;;;;;19.20;99.90;;;;;;5093871;28;19923;-75
2021/07/23 06:29:18;;;;;;;;;;;19.80;99.90;;;;;;5093839;28;19918;-72
2021/07/23 06:31:43;;;;;;;;;;;20.40;99.90;;;;;;5092693;28;19912;-72
2021/07/23 06:34:09;;;;;;;;;;;21.00;99.90;;;;;;5093739;28;19998;-73
2021/07/23 06:36:35;;;;;;;;;;;21.50;99.90;;;;;;5093585;28;20364;-76
2021/07/23 06:39:00;;;;;;;;;;;21.70;99.90;;;;;;5093698;28;19908;-72
2021/07/23 06:41:26;;;;;;;;;;;21.50;99.90;;;;;;5093793;28;19908;-72
2021/07/23 06:43:51;;;;;;;;;;;21.40;99.90;;;;;;5092168;28;19912;-73
2021/07/23 06:46:17;;;;;;;;;;;21.10;99.90;;;;;;5093041;28;19920;-76
2021/07/23 06:48:42;;;;;;;;;;;20.90;99.90;;;;;;5093400;28;20373;-72
2021/07/23 06:51:07;;;;;;;;;;;20.80;99.90;;;;;;5093592;28;19955;-73
2021/07/23 06:53:33;;;;;;;;;;;20.60;99.90;;;;;;5078960;28;19959;-75
2021/07/23 06:55:59;;;;;;;;;;;20.90;99.90;;;;;;5093480;28;20338;-72
2021/07/23 06:58:24;;;;;;;;;;;21.60;99.90;;;;;;5093083;28;19937;-73
2021/07/23 07:00:50;;;;;;;;;;;22.30;99.90;;;;;;5092812;28;20280;-73
2021/07/23 07:03:15;;;;;;;;;;;23.00;99.90;;;;;;5103459;28;19917;-75
2021/07/23 07:05:40;;;;;;;;;;;23.60;99.90;;;;;;5088921;28;19908;-73
2021/07/23 07:08:10;;;;;;;;;;;24.40;99.90;;;;;;5095814;28;19915;-73
2021/07/23 07:10:36;;;;;;;;;;;24.90;99.90;;;;;;5090265;28;19908;-74
2021/07/23 07:13:02;;;;;;;;;;;25.30;99.90;;;;;;5091163;28;20230;-74
2021/07/23 07:15:27;;;;;;;;;;;25.60;99.90;;;;;;5071533;28;19912;-75
2021/07/23 07:17:56;;;;;;;;;;;26.10;99.90;;;;;;5089110;28;19915;-74
2021/07/23 07:20:22;;;;;;;;;;;26.30;99.80;;;;;;5073444;28;19927;-75
2021/07/23 07:22:47;;;;;;;;;;;26.40;98.90;;;;;;5078563;28;19908;-75
2021/07/23 07:25:13;;;;;;;;;;;26.40;99.30;;;;;;5089928;28;19929;-75
2021/07/23 07:27:38;;;;;;;;;;;27.00;98.70;;;;;;5090139;28;20434;-75
2021/07/23 07:30:04;;;;;;;;;;;27.30;98.80;;;;;;5091760;28;19918;-75
2021/07/23 07:32:29;;;;;;;;;;;27.60;97.50;;;;;;5079062;28;20381;-75
2021/07/23 07:34:55;;;;;;;;;;;27.90;97.40;;;;;;5073730;28;20449;-75
2021/07/23 07:37:20;;;;;;;;;;;28.00;97.70;;;;;;5070008;28;19908;-75
2021/07/23 07:39:46;;;;;;;;;;;28.10;96.80;;;;;;5073977;28;19912;-75
2021/07/23 07:42:11;;;;;;;;;;;28.10;96.30;;;;;;5090320;28;19912;-75
2021/07/23 07:44:37;;;;;;;;;;;28.40;95.60;;;;;;5076380;28;19920;-75
2021/07/23 07:47:02;;;;;;;;;;;28.50;95.20;;;;;;5088805;28;19920;-75
2021/07/23 07:49:28;;;;;;;;;;;28.80;95.00;;;;;;5092196;28;19930;-75
2021/07/23 07:51:53;;;;;;;;;;;28.90;95.20;;;;;;5090107;28;20035;-75
2021/07/23 07:54:19;;;;;;;;;;;28.90;94.10;;;;;;5087112;28;19908;-74
2021/07/23 07:56:44;;;;;;;;;;;28.70;94.90;;;;;;5090511;28;19908;-75
2021/07/23 07:59:10;;;;;;;;;;;28.60;94.70;;;;;;5088274;28;19908;-75
2021/07/23 08:01:35;;;;;;;;;;;28.50;94.20;;;;;;5085673;28;19955;-75
2021/07/23 08:04:01;;;;;;;;;;;28.40;95.30;;;;;;5089863;28;19913;-75
2021/07/23 08:06:32;;;;;;;;;;;28.60;94.60;;;;;;5090193;28;19915;-75
2021/07/23 08:09:04;;;;;;;;;;;28.30;94.20;;;;;;5090511;28;19908;-75
2021/07/23 08:11:30;;;;;;;;;;;28.30;94.90;;;;;;5090543;28;20008;-75
2021/07/23 08:13:55;;;;;;;;;;;28.40;94.00;;;;;;5089142;28;20622;-74
2021/07/23 08:16:21;;;;;;;;;;;28.30;95.10;;;;;;5089948;28;19916;-78
2021/07/23 08:18:46;;;;;;;;;;;28.30;95.90;;;;;;5085821;28;19908;-77
2021/07/23 08:21:12;;;;;;;;;;;28.50;95.60;;;;;;5082200;28;19909;-75
2021/07/23 08:23:37;;;;;;;;;;;28.80;95.90;;;;;;5084973;28;20270;-75
2021/07/23 08:26:04;;;;;;;;;;;29.10;96.20;;;;;;5089167;28;19912;-75
2021/07/23 08:28:30;;;;;;;;;;;29.30;95.60;;;;;;5089778;28;19912;-75
2021/07/23 08:30:56;;;;;;;;;;;29.60;94.30;;;;;;5084727;28;19908;-75
2021/07/23 08:33:22;;;;;;;;;;;29.70;94.40;;;;;;5089681;28;20365;-75
2021/07/23 08:35:48;;;;;;;;;;;29.90;93.30;;;;;;5088448;28;20280;-75
2021/07/23 08:38:14;;;;;;;;;;;30.10;91.80;;;;;;5091062;28;19912;-75
2021/07/23 08:40:39;;;;;;;;;;;30.00;91.70;;;;;;5089570;28;20418;-75
2021/07/23 08:43:05;;;;;;;;;;;30.00;91.20;;;;;;5088714;28;20003;-75
2021/07/23 08:45:30;;;;;;;;;;;30.10;94.40;;;;;;5090681;28;19916;-75
2021/07/23 08:47:56;;;;;;;;;;;30.30;92.30;;;;;;5086163;28;19915;-75
2021/07/23 08:50:23;;;;;;;;;;;30.40;93.50;;;;;;5090198;28;20292;-75
2021/07/23 08:52:50;;;;;;;;;;;30.40;92.80;;;;;;5088139;28;19912;-75
2021/07/23 08:55:17;;;;;;;;;;;30.50;92.50;;;;;;5086817;28;19915;-74
2021/07/23 08:57:43;;;;;;;;;;;30.40;91.30;;;;;;5086567;28;19908;-74
2021/07/23 09:00:10;;;;;;;;;;;30.30;91.50;;;;;;5089083;28;20443;-75
2021/07/23 09:03:01;;;;;;;;;;;30.30;91.80;;;;;;5088129;28;19955;-73
2021/07/23 09:05:28;;;;;;;;;;;30.50;92.00;;;;;;5082750;28;20373;-74
2021/07/23 09:07:56;;;;;;;;;;;30.80;90.00;;;;;;5085976;28;19999;-74
2021/07/23 09:10:23;;;;;;;;;;;30.80;90.40;;;;;;5090147;28;19916;-74
2021/07/23 09:12:50;;;;;;;;;;;31.00;90.70;;;;;;5074251;28;19944;-74
2021/07/23 09:15:16;;;;;;;;;;;30.70;86.30;;;;;;5087198;28;19981;-74
2021/07/23 09:17:42;;;;;;;;;;;30.70;89.50;;;;;;5087521;28;19922;-74
2021/07/23 09:20:08;;;;;;;;;;;30.90;90.90;;;;;;5096910;28;19908;-74
2021/07/23 09:22:42;;;;;;;;;;;31.10;90.20;;;;;;5087002;28;19940;-74
2021/07/23 09:25:08;;;;;;;;;;;31.10;88.40;;;;;;5081617;28;19909;-74
2021/07/23 09:27:35;;;;;;;;;;;31.10;90.90;;;;;;5077650;28;20054;-74
2021/07/23 09:30:07;;;;;;;;;;;31.40;90.60;;;;;;5087420;28;19915;-74
2021/07/23 09:32:32;;;;;;;;;;;31.60;88.50;;;;;;5099756;28;20033;-74
2021/07/23 09:35:27;;;;;;;;;;;31.80;87.50;;;;;;5091779;28;20006;-74
2021/07/23 09:37:57;;;;;;;;;;;32.00;81.70;;;;;;5071718;28;19988;-74
2021/07/23 09:40:23;;;;;;;;;;;32.00;87.90;;;;;;5092898;28;19916;-74
2021/07/23 09:42:58;;;;;;;;;;;31.90;85.10;;;;;;5093987;28;19915;-74
2021/07/23 09:45:27;;;;;;;;;;;31.70;84.40;;;;;;5093515;28;19916;-74
2021/07/23 09:48:06;;;;;;;;;;;31.60;89.80;;;;;;5076102;28;19908;-74
2021/07/23 09:50:32;;;;;;;;;;;31.40;86.30;;;;;;5085205;28;20001;-74
2021/07/23 09:52:57;;;;;;;;;;;31.40;85.00;;;;;;5083728;28;19969;-74
2021/07/23 09:55:23;;;;;;;;;;;31.50;87.50;;;;;;5098274;28;19907;-74
2021/07/23 09:57:51;;;;;;;;;;;31.80;89.10;;;;;;5090066;28;20289;-74
2021/07/23 10:00:20;;;;;;;;;;;32.30;80.90;;;;;;5100760;28;20343;-74
2021/07/23 10:02:46;;;;;;;;;;;32.30;81.60;;;;;;5091477;28;19908;-74
2021/07/23 10:05:19;;;;;;;;;;;32.50;81.80;;;;;;5084556;28;19919;-74
2021/07/23 10:07:47;;;;;;;;;;;32.50;80.10;;;;;;5081688;28;19908;-74
2021/07/23 10:10:13;;;;;;;;;;;32.40;85.60;;;;;;5088139;28;19961;-74
2021/07/23 10:12:41;;;;;;;;;;;32.60;82.30;;;;;;5086599;28;19915;-74
2021/07/23 10:15:07;;;;;;;;;;;32.50;83.00;;;;;;5092454;28;20352;-74
2021/07/23 10:17:33;;;;;;;;;;;32.50;78.40;;;;;;5088939;28;19908;-74
2021/07/23 10:19:59;;;;;;;;;;;32.50;81.30;;;;;;5073666;28;19916;-74
2021/07/23 10:22:28;;;;;;;;;;;32.50;81.90;;;;;;5089184;28;19912;-74
2021/07/23 10:24:54;;;;;;;;;;;32.50;81.20;;;;;;5082439;28;20383;-73
2021/07/23 10:27:22;;;;;;;;;;;32.50;79.80;;;;;;5077451;28;19913;-74
2021/07/23 10:29:51;;;;;;;;;;;32.50;77.60;;;;;;5080238;28;19916;-73
2021/07/23 10:32:22;;;;;;;;;;;32.50;81.70;;;;;;5100915;28;19912;-74
2021/07/23 10:34:48;;;;;;;;;;;32.50;82.70;;;;;;5081344;28;19962;-73
2021/07/23 10:37:33;;;;;;;;;;;32.70;76.30;;;;;;5086516;28;19907;-73
2021/07/23 10:40:12;;;;;;;;;;;32.80;85.20;;;;;;5097792;28;19912;-76
2021/07/23 10:42:38;;;;;;;;;;;32.90;80.10;;;;;;5078928;28;19908;-74
2021/07/23 10:45:05;;;;;;;;;;;33.20;80.70;;;;;;5090115;28;19916;-73
2021/07/23 10:47:53;;;;;;;;;;;33.30;77.70;;;;;;5092814;28;19912;-74
2021/07/23 10:50:25;;;;;;;;;;;33.30;77.70;;;;;;5073919;28;19952;-75
2021/07/23 10:52:50;;;;;;;;;;;33.40;79.90;;;;;;5099074;28;20048;-73
2021/07/23 10:55:17;;;;;;;;;;;33.10;79.70;;;;;;5086204;28;19908;-73
2021/07/23 10:57:43;;;;;;;;;;;32.90;78.20;;;;;;5087417;28;19957;-73
2021/07/23 11:00:10;;;;;;;;;;;32.50;75.80;;;;;;5090920;28;19909;-75
2021/07/23 11:02:35;;;;;;;;;;;32.10;79.60;;;;;;5097935;28;19912;-73
2021/07/23 11:05:05;;;;;;;;;;;31.80;82.50;;;;;;5084370;28;20392;-73
2021/07/23 11:07:31;;;;;;;;;;;31.90;78.20;;;;;;5074379;28;19999;-73
2021/07/23 11:09:56;;;;;;;;;;;31.90;80.80;;;;;;5085553;28;20046;-73
2021/07/23 11:12:23;;;;;;;;;;;32.10;83.90;;;;;;5089684;28;19923;-74
2021/07/23 11:14:56;;;;;;;;;;;32.50;76.10;;;;;;5083709;28;19908;-73
2021/07/23 11:17:21;;;;;;;;;;;32.70;78.40;;;;;;5080055;28;19908;-75
2021/07/23 11:19:52;;;;;;;;;;;32.30;79.00;;;;;;5101276;28;20045;-73
2021/07/23 11:22:28;;;;;;;;;;;32.20;74.50;;;;;;5083698;28;19999;-75
2021/07/23 11:24:54;;;;;;;;;;;32.30;80.70;;;;;;5079799;28;20932;-73
2021/07/23 11:27:26;;;;;;;;;;;32.50;78.90;;;;;;5082721;28;19908;-75
2021/07/23 11:29:53;;;;;;;;;;;32.60;77.60;;;;;;5089410;28;19931;-74
2021/07/23 11:32:18;;;;;;;;;;;32.70;77.20;;;;;;5086266;28;20423;-73
2021/07/23 11:34:44;;;;;;;;;;;32.80;76.70;;;;;;5088422;28;19912;-74
2021/07/23 11:37:29;;;;;;;;;;;32.90;75.20;;;;;;5081165;28;20346;-74
2021/07/23 11:40:02;;;;;;;;;;;33.20;78.20;;;;;;5086424;28;20269;-73
2021/07/23 11:42:29;;;;;;;;;;;33.30;74.30;;;;;;5087029;28;19919;-75
2021/07/23 11:44:54;;;;;;;;;;;33.50;75.90;;;;;;5090397;28;20030;-73
2021/07/23 11:47:32;;;;;;;;;;;33.60;71.30;;;;;;5089874;28;19991;-74
2021/07/23 11:50:18;;;;;;;;;;;33.50;73.50;;;;;;5089698;28;20284;-75
2021/07/23 11:52:45;;;;;;;;;;;33.50;75.40;;;;;;5090762;28;19916;-73
2021/07/23 11:55:14;;;;;;;;;;;33.80;76.90;;;;;;5088666;28;19915;-75
2021/07/23 11:57:41;;;;;;;;;;;33.50;72.70;;;;;;5092109;28;19908;-73
2021/07/23 12:00:07;;;;;;;;;;;33.50;67.80;;;;;;5089335;28;19912;-74
2021/07/23 12:02:32;;;;;;;;;;;33.40;69.60;;;;;;5076828;28;19927;-75
2021/07/23 12:05:04;;;;;;;;;;;33.10;68.70;;;;;;5088151;28;19928;-73
2021/07/23 12:07:30;;;;;;;;;;;32.40;71.60;;;;;;5082235;28;20020;-73
2021/07/23 12:09:56;;;;;;;;;;;32.20;75.10;;;;;;5079157;28;20007;-74
2021/07/23 12:12:22;;;;;;;;;;;32.20;69.90;;;;;;5070279;28;20448;-74
2021/07/23 12:14:47;;;;;;;;;;;32.30;74.50;;;;;;5073713;28;20007;-73
2021/07/23 12:17:13;;;;;;;;;;;32.50;67.60;;;;;;5089125;28;19908;-74
2021/07/23 12:19:39;;;;;;;;;;;32.70;70.50;;;;;;5090690;28;19908;-74
2021/07/23 12:22:09;;;;;;;;;;;33.00;72.20;;;;;;5089284;28;19961;-73
2021/07/23 12:24:35;;;;;;;;;;;33.30;70.70;;;;;;5083171;28;19908;-73
2021/07/23 12:27:13;;;;;;;;;;;33.50;68.70;;;;;;5086313;28;20492;-74
2021/07/23 12:29:38;;;;;;;;;;;33.60;71.30;;;;;;5078362;28;19959;-73
2021/07/23 12:32:11;;;;;;;;;;;33.60;72.60;;;;;;5088152;28;19952;-73
2021/07/23 12:34:36;;;;;;;;;;;33.70;66.70;;;;;;5080674;28;19908;-73
2021/07/23 12:37:13;;;;;;;;;;;33.80;72.90;;;;;;5097526;28;20055;-73
2021/07/23 12:39:48;;;;;;;;;;;34.10;68.50;;;;;;5088315;28;19990;-74
2021/07/23 12:42:17;;;;;;;;;;;34.30;71.70;;;;;;5079567;28;19909;-75
2021/07/23 12:44:43;;;;;;;;;;;34.20;69.00;;;;;;5080575;28;20004;-73
2021/07/23 12:47:18;;;;;;;;;;;33.80;67.00;;;;;;5084150;28;19999;-74
2021/07/23 12:49:44;;;;;;;;;;;33.50;68.30;;;;;;5088832;28;19908;-74
2021/07/23 12:52:10;;;;;;;;;;;33.10;68.30;;;;;;5076667;28;19912;-74
2021/07/23 12:54:39;;;;;;;;;;;32.70;69.60;;;;;;5069869;28;19908;-76
2021/07/23 12:57:25;;;;;;;;;;;32.50;71.50;;;;;;5081590;28;19917;-74
2021/07/23 12:59:51;;;;;;;;;;;32.60;69.40;;;;;;5069200;28;19916;-73
2021/07/23 13:02:19;;;;;;;;;;;32.70;69.80;;;;;;5090884;28;20300;-73
2021/07/23 13:04:45;;;;;;;;;;;32.80;67.40;;;;;;5091010;28;20045;-74
2021/07/23 13:07:14;;;;;;;;;;;32.90;66.70;;;;;;5089749;28;19973;-74
2021/07/23 13:09:41;;;;;;;;;;;32.90;69.40;;;;;;5091279;28;19999;-76
2021/07/23 13:12:06;;;;;;;;;;;33.10;68.70;;;;;;5091781;28;20465;-74
2021/07/23 13:14:32;;;;;;;;;;;33.10;65.80;;;;;;5091310;28;20034;-74
2021/07/23 13:16:59;;;;;;;;;;;32.90;68.40;;;;;;5089775;28;19908;-74
2021/07/23 13:19:24;;;;;;;;;;;32.90;72.70;;;;;;5091558;28;19908;-74
2021/07/23 13:21:50;;;;;;;;;;;33.10;71.00;;;;;;5091307;28;19908;-73
2021/07/23 13:24:15;;;;;;;;;;;33.40;67.50;;;;;;5091048;28;19908;-74
2021/07/23 13:26:41;;;;;;;;;;;33.50;68.60;;;;;;5090867;28;19908;-73
2021/07/23 13:29:08;;;;;;;;;;;33.80;66.20;;;;;;5082374;28;19958;-74
2021/07/23 13:31:33;;;;;;;;;;;33.80;64.60;;;;;;5086689;28;19908;-74
2021/07/23 13:33:59;;;;;;;;;;;33.60;70.00;;;;;;5091185;28;19908;-74
2021/07/23 13:36:33;;;;;;;;;;;33.40;66.20;;;;;;5089057;28;19930;-75
2021/07/23 13:39:10;;;;;;;;;;;33.20;65.50;;;;;;5091247;28;19908;-74
2021/07/23 13:41:39;;;;;;;;;;;33.20;69.30;;;;;;5091131;28;20007;-74
2021/07/23 13:44:06;;;;;;;;;;;33.30;70.80;;;;;;5091205;28;19908;-73
2021/07/23 13:46:31;;;;;;;;;;;33.20;65.60;;;;;;5090371;28;19960;-74
2021/07/23 13:48:57;;;;;;;;;;;33.10;71.50;;;;;;5091006;28;19998;-75
2021/07/23 13:51:22;;;;;;;;;;;33.30;66.30;;;;;;5090848;28;19961;-74
2021/07/23 13:53:48;;;;;;;;;;;33.50;66.50;;;;;;5091142;28;20284;-74
2021/07/23 13:56:14;;;;;;;;;;;33.70;69.30;;;;;;5090452;28;19915;-74
2021/07/23 13:58:40;;;;;;;;;;;34.00;71.90;;;;;;5091017;28;19908;-75
2021/07/23 14:01:06;;;;;;;;;;;34.30;67.90;;;;;;5089738;28;19908;-74
2021/07/23 14:03:31;;;;;;;;;;;34.60;70.80;;;;;;5106520;28;20379;-74
2021/07/23 14:05:56;;;;;;;;;;;34.80;66.50;;;;;;5110996;28;19911;-74
2021/07/23 14:08:22;;;;;;;;;;;34.80;62.80;;;;;;5111083;28;19919;-74
2021/07/23 14:10:47;;;;;;;;;;;34.80;61.70;;;;;;5111061;28;19912;-74
2021/07/23 14:13:14;;;;;;;;;;;34.80;64.80;;;;;;5111252;28;20356;-74